Time;durP1;ratioP1;P1;durP2;ratioP2;P2;SDS_P1;SDS_P2;PMS_P1;PMS_P2;Temp;Humidity;BMP_temperature;BMP_pressure;BME280_temperature;BME280_humidity;BME280_pressure;Samples;Min_cycle;Max_cycle;Signal;HPM_P1;HPM_P2
2022/03/31 00:00:30;;;;;;;30.92;19.58;;;2.80;99.90;;;;;;5009429;28;20048;-69
2022/03/31 00:02:58;;;;;;;27.48;20.35;;;2.80;99.90;;;;;;5024721;28;20119;-69
2022/03/31 00:05:25;;;;;;;28.33;20.50;;;2.70;99.90;;;;;;5024455;28;20559;-69
2022/03/31 00:07:54;;;;;;;30.25;21.60;;;2.60;99.90;;;;;;5005449;28;20111;-68
2022/03/31 00:10:30;;;;;;;36.30;22.48;;;2.60;99.90;;;;;;5004452;28;20191;-69
2022/03/31 00:12:58;;;;;;;36.03;21.92;;;2.60;99.90;;;;;;5002946;28;20224;-69
2022/03/31 00:15:26;;;;;;;35.78;21.83;;;2.50;99.90;;;;;;5033606;23;20046;-75
2022/03/31 00:17:54;;;;;;;43.05;25.80;;;2.50;99.90;;;;;;5003833;28;20048;-75
2022/03/31 00:34:55;;;;;;;43.03;25.40;;;2.90;99.90;;;;;;4973864;28;20072;-75
2022/03/31 00:37:37;;;;;;;46.13;25.98;;;3.00;99.90;;;;;;4985239;28;20046;-75
2022/03/31 00:40:06;;;;;;;44.00;25.10;;;3.00;99.90;;;;;;4967376;28;20042;-75
2022/03/31 00:42:39;;;;;;;50.83;29.73;;;3.00;99.90;;;;;;4984231;28;20328;-75
2022/03/31 00:45:15;;;;;;;54.97;30.02;;;3.10;99.90;;;;;;4985463;28;20053;-75
2022/03/31 00:47:42;;;;;;;57.40;31.05;;;3.20;99.90;;;;;;4967969;28;20054;-75
2022/03/31 00:50:11;;;;;;;62.80;32.97;;;3.30;99.90;;;;;;4998154;28;20058;-75
2022/03/31 00:52:39;;;;;;;53.63;31.88;;;3.30;99.90;;;;;;4993856;28;20054;-75
2022/03/31 00:55:09;;;;;;;65.05;33.28;;;3.40;99.90;;;;;;4967194;28;20070;-75
2022/03/31 00:57:36;;;;;;;65.28;34.58;;;3.50;99.90;;;;;;4984447;28;20046;-74
2022/03/31 01:00:07;;;;;;;76.90;38.83;;;3.60;99.90;;;;;;4967307;28;20054;-73
2022/03/31 01:02:35;;;;;;;66.93;38.22;;;3.70;99.90;;;;;;4984613;28;20046;-75
2022/03/31 01:05:03;;;;;;;73.80;39.05;;;3.80;99.90;;;;;;4982862;28;20050;-75
2022/03/31 01:07:33;;;;;;;75.72;38.72;;;3.90;99.90;;;;;;4982771;28;20049;-75
2022/03/31 01:10:01;;;;;;;69.10;38.63;;;3.90;99.90;;;;;;4984848;28;20054;-75
2022/03/31 01:12:28;;;;;;;66.88;37.78;;;3.90;99.90;;;;;;4982331;28;20050;-75
2022/03/31 01:15:09;;;;;;;70.07;40.25;;;3.90;99.90;;;;;;4980523;28;20480;-74
2022/03/31 01:17:38;;;;;;;65.70;38.65;;;4.00;99.90;;;;;;4980235;28;20101;-75
2022/03/31 01:20:08;;;;;;;67.38;37.90;;;4.00;99.90;;;;;;4964962;28;20055;-75
2022/03/31 01:22:35;;;;;;;63.03;37.97;;;4.00;99.90;;;;;;4963678;28;20038;-74
2022/03/31 01:25:05;;;;;;;66.75;37.95;;;4.10;99.90;;;;;;4984268;28;20034;-74
2022/03/31 01:27:36;;;;;;;65.50;36.97;;;4.10;99.90;;;;;;4983779;28;20108;-75
2022/03/31 01:30:08;;;;;;;62.20;37.08;;;4.10;99.90;;;;;;4982770;28;20861;-74
2022/03/31 01:32:35;;;;;;;64.97;38.33;;;4.00;99.90;;;;;;4982488;28;20657;-74
2022/03/31 01:35:06;;;;;;;69.20;39.63;;;4.00;99.90;;;;;;4982901;28;20050;-73
2022/03/31 01:37:32;;;;;;;75.03;40.75;;;4.10;99.90;;;;;;4966521;28;20054;-73
2022/03/31 01:39:59;;;;;;;73.47;40.42;;;4.10;99.90;;;;;;4984313;28;20057;-73
2022/03/31 01:42:27;;;;;;;66.55;38.30;;;4.20;99.90;;;;;;4982575;28;20812;-74
2022/03/31 01:44:55;;;;;;;71.55;39.28;;;4.20;99.90;;;;;;4983911;28;20054;-74
2022/03/31 01:47:22;;;;;;;68.68;39.45;;;4.10;99.90;;;;;;4968664;28;20054;-74
2022/03/31 01:49:49;;;;;;;69.28;38.83;;;4.10;99.90;;;;;;4998520;28;20081;-73
2022/03/31 01:52:16;;;;;;;67.72;37.40;;;4.10;99.90;;;;;;4992261;28;20651;-74
2022/03/31 01:54:42;;;;;;;68.75;38.55;;;4.10;99.90;;;;;;4984746;28;20054;-72
2022/03/31 01:57:09;;;;;;;64.70;38.90;;;4.10;99.90;;;;;;4966183;28;20049;-74
2022/03/31 01:59:38;;;;;;;59.05;36.28;;;4.10;99.90;;;;;;4980745;28;20584;-72
2022/03/31 02:02:05;;;;;;;59.00;36.42;;;4.20;99.90;;;;;;4988914;28;20042;-71
2022/03/31 02:04:36;;;;;;;58.17;36.47;;;4.20;99.90;;;;;;4980757;28;20038;-73
2022/03/31 02:07:03;;;;;;;66.70;37.38;;;4.20;99.90;;;;;;4980133;28;20050;-74
2022/03/31 02:09:30;;;;;;;61.22;37.72;;;4.10;99.90;;;;;;4966346;28;20050;-77
2022/03/31 02:11:57;;;;;;;60.45;36.03;;;4.10;99.90;;;;;;4982710;28;20656;-74
2022/03/31 02:14:25;;;;;;;62.72;37.97;;;4.20;99.90;;;;;;4967397;28;20065;-74
2022/03/31 02:16:52;;;;;;;55.53;37.47;;;4.20;99.90;;;;;;4960946;28;20512;-73
2022/03/31 02:19:19;;;;;;;51.53;34.47;;;4.10;99.90;;;;;;4982520;28;20053;-73
2022/03/31 02:21:46;;;;;;;52.83;33.92;;;4.20;99.90;;;;;;4983581;28;20046;-73
2022/03/31 02:24:14;;;;;;;65.03;35.17;;;4.20;99.90;;;;;;4981914;28;20145;-74
2022/03/31 02:26:42;;;;;;;55.03;35.05;;;4.20;99.90;;;;;;4980878;28;20054;-73
2022/03/31 02:29:09;;;;;;;48.63;33.45;;;4.20;99.90;;;;;;4982815;28;20479;-73
2022/03/31 02:31:36;;;;;;;53.33;34.38;;;4.10;99.90;;;;;;4982134;28;20054;-73
2022/03/31 02:34:03;;;;;;;53.97;34.85;;;4.20;99.90;;;;;;4974545;28;20126;-74
2022/03/31 02:36:30;;;;;;;51.05;33.00;;;4.20;99.90;;;;;;4946103;28;20162;-74
2022/03/31 02:38:57;;;;;;;47.75;32.97;;;4.30;99.90;;;;;;4963977;28;20102;-74
2022/03/31 02:41:24;;;;;;;53.10;33.22;;;4.30;99.90;;;;;;4963306;28;20077;-73
2022/03/31 02:43:52;;;;;;;49.28;34.17;;;4.30;99.90;;;;;;4955455;28;20046;-74
2022/03/31 02:46:19;;;;;;;52.05;33.00;;;4.30;99.90;;;;;;4951111;28;20050;-73
2022/03/31 02:48:52;;;;;;;47.95;32.60;;;4.30;99.90;;;;;;4974003;28;20088;-76
2022/03/31 02:51:19;;;;;;;48.65;33.85;;;4.30;99.90;;;;;;4967066;28;20053;-74
2022/03/31 02:56:32;;;;;;;50.15;30.90;;;4.30;99.90;;;;;;4979977;28;20069;-76
2022/03/31 02:58:59;;;;;;;51.15;32.55;;;4.10;99.90;;;;;;4980290;28;20100;-73
2022/03/31 03:01:27;;;;;;;47.80;33.17;;;4.10;99.90;;;;;;4979798;28;20042;-76
2022/03/31 03:03:56;;;;;;;48.67;33.03;;;4.10;99.90;;;;;;4981707;28;20050;-75
2022/03/31 03:06:23;;;;;;;52.45;33.90;;;4.20;99.90;;;;;;4963293;28;20315;-74
2022/03/31 03:08:50;;;;;;;49.53;32.85;;;4.10;99.90;;;;;;4981510;28;20086;-76
2022/03/31 03:11:17;;;;;;;54.97;35.22;;;4.10;99.90;;;;;;4981362;28;20050;-74
2022/03/31 03:13:47;;;;;;;50.78;31.92;;;4.10;99.90;;;;;;4964696;28;20069;-75
2022/03/31 03:16:14;;;;;;;50.35;34.72;;;4.00;99.90;;;;;;4948828;28;20058;-73
2022/03/31 03:18:41;;;;;;;52.95;33.80;;;3.90;99.90;;;;;;4962688;28;20054;-76
2022/03/31 03:21:08;;;;;;;51.50;33.05;;;3.90;99.90;;;;;;4944171;28;20039;-75
2022/03/31 03:23:37;;;;;;;48.35;31.63;;;3.90;99.90;;;;;;4971635;28;20086;-74
2022/03/31 03:26:05;;;;;;;44.83;28.50;;;3.80;99.90;;;;;;4980403;28;20053;-74
2022/03/31 03:28:36;;;;;;;40.92;26.55;;;3.70;99.90;;;;;;4981238;28;20109;-74
2022/03/31 03:31:06;;;;;;;59.83;32.85;;;3.70;99.90;;;;;;4981205;28;20100;-75
2022/03/31 03:33:34;;;;;;;55.13;33.03;;;3.60;99.90;;;;;;4965382;28;20050;-75
2022/03/31 03:36:03;;;;;;;55.70;32.38;;;3.70;99.90;;;;;;4979304;28;20065;-75
2022/03/31 03:38:31;;;;;;;50.90;31.85;;;3.60;99.90;;;;;;4981980;28;20524;-74
2022/03/31 03:40:57;;;;;;;49.67;31.35;;;3.60;99.90;;;;;;4963052;28;20061;-75
2022/03/31 03:43:24;;;;;;;55.00;34.22;;;3.70;99.90;;;;;;4981754;28;20238;-75
2022/03/31 03:45:52;;;;;;;57.92;34.92;;;3.70;99.90;;;;;;4977327;28;20480;-75
2022/03/31 03:48:20;;;;;;;54.05;31.42;;;3.60;99.90;;;;;;4975289;28;20131;-76
2022/03/31 03:50:47;;;;;;;58.17;33.83;;;3.40;99.90;;;;;;5000179;28;20448;-75
2022/03/31 03:53:15;;;;;;;60.28;33.78;;;3.40;99.90;;;;;;4993558;28;20050;-75
2022/03/31 03:55:41;;;;;;;61.20;34.45;;;3.30;99.90;;;;;;4962922;28;20061;-76
2022/03/31 03:58:08;;;;;;;55.72;33.40;;;3.30;99.90;;;;;;4981591;28;20070;-75
2022/03/31 04:00:36;;;;;;;63.20;38.35;;;3.20;99.90;;;;;;4980416;28;20030;-75
2022/03/31 04:03:02;;;;;;;67.85;35.53;;;3.20;99.90;;;;;;4981226;28;20659;-74
2022/03/31 04:05:29;;;;;;;60.60;36.35;;;3.10;99.90;;;;;;4979767;28;20588;-75
2022/03/31 04:07:56;;;;;;;72.60;39.70;;;3.00;99.90;;;;;;4964274;28;20053;-76
2022/03/31 04:10:23;;;;;;;65.75;39.13;;;3.00;99.90;;;;;;4944367;28;20588;-75
2022/03/31 04:12:50;;;;;;;67.50;38.35;;;3.00;99.90;;;;;;4962293;28;20082;-74
2022/03/31 04:15:17;;;;;;;70.72;38.35;;;3.10;99.90;;;;;;4970065;28;20716;-75
2022/03/31 04:17:44;;;;;;;64.28;37.90;;;3.00;99.90;;;;;;4970877;28;20054;-74
2022/03/31 04:20:13;;;;;;;69.95;40.58;;;3.10;99.90;;;;;;4963662;28;20346;-76
2022/03/31 04:22:41;;;;;;;74.72;40.88;;;3.00;99.90;;;;;;4996789;28;20042;-76
2022/03/31 04:25:09;;;;;;;72.57;41.38;;;3.00;99.90;;;;;;4980479;28;20069;-76
2022/03/31 04:27:38;;;;;;;79.78;42.88;;;3.10;99.90;;;;;;4978034;28;20641;-75
2022/03/31 04:30:07;;;;;;;77.53;41.47;;;3.00;99.90;;;;;;4980670;28;20524;-75
2022/03/31 04:32:34;;;;;;;74.95;40.28;;;2.90;99.90;;;;;;4981450;28;20054;-75
2022/03/31 04:35:01;;;;;;;71.97;40.33;;;2.80;99.90;;;;;;4963816;28;20058;-75
2022/03/31 04:37:28;;;;;;;67.53;39.30;;;2.80;99.90;;;;;;4960218;28;20038;-76
2022/03/31 04:39:55;;;;;;;72.45;39.13;;;2.70;99.90;;;;;;4965200;28;20046;-75
2022/03/31 04:42:22;;;;;;;64.50;37.72;;;2.70;99.90;;;;;;4964097;28;20768;-75
2022/03/31 04:44:49;;;;;;;67.80;39.47;;;2.60;99.90;;;;;;4965787;28;20627;-75
2022/03/31 04:47:16;;;;;;;66.25;38.00;;;2.60;99.90;;;;;;4979843;28;20717;-75
2022/03/31 04:49:42;;;;;;;73.93;37.75;;;2.60;99.90;;;;;;4994389;28;20140;-74
2022/03/31 04:52:09;;;;;;;68.30;37.38;;;2.70;99.90;;;;;;5002189;28;20053;-75
2022/03/31 04:54:36;;;;;;;68.93;39.30;;;2.70;99.90;;;;;;4988898;28;20141;-75
2022/03/31 04:57:03;;;;;;;73.43;40.95;;;2.70;99.90;;;;;;4983387;28;20074;-74
2022/03/31 04:59:30;;;;;;;67.82;39.92;;;2.70;99.90;;;;;;4969925;28;20711;-75
2022/03/31 05:01:57;;;;;;;70.00;38.53;;;2.70;99.90;;;;;;4978613;28;20043;-75
2022/03/31 05:04:24;;;;;;;68.57;39.67;;;2.70;99.90;;;;;;4979822;28;20508;-75
2022/03/31 05:06:50;;;;;;;70.40;38.72;;;2.80;99.90;;;;;;4945054;28;20047;-76
2022/03/31 05:09:17;;;;;;;67.95;38.90;;;2.80;99.90;;;;;;4964479;28;20145;-75
2022/03/31 05:11:44;;;;;;;68.72;40.80;;;2.70;99.90;;;;;;4964905;28;20599;-75
2022/03/31 05:14:10;;;;;;;66.00;38.60;;;2.80;99.90;;;;;;4964923;28;20529;-75
2022/03/31 05:16:37;;;;;;;78.60;41.95;;;2.70;99.90;;;;;;4964159;28;20047;-76
2022/03/31 05:19:04;;;;;;;69.10;40.20;;;2.70;99.90;;;;;;4947476;28;20047;-74
2022/03/31 05:21:31;;;;;;;71.75;38.80;;;2.60;99.90;;;;;;4963782;28;20081;-75
2022/03/31 05:23:57;;;;;;;74.63;42.70;;;2.60;99.90;;;;;;4966712;28;20238;-76
2022/03/31 05:26:24;;;;;;;74.63;40.22;;;2.70;99.90;;;;;;4983043;28;20042;-75
2022/03/31 05:28:51;;;;;;;74.90;40.63;;;2.70;99.90;;;;;;4982026;28;20085;-74
2022/03/31 05:31:18;;;;;;;72.13;41.10;;;2.60;99.90;;;;;;4982001;28;20571;-76
2022/03/31 05:33:45;;;;;;;75.93;39.72;;;2.60;99.90;;;;;;4983411;28;20050;-75
2022/03/31 05:36:11;;;;;;;76.72;40.05;;;2.60;99.90;;;;;;4983402;28;20612;-76
2022/03/31 05:38:38;;;;;;;67.70;36.70;;;2.60;99.90;;;;;;4984700;28;20109;-76
2022/03/31 05:41:05;;;;;;;74.28;36.67;;;2.70;99.90;;;;;;4967117;28;20038;-76
2022/03/31 05:43:32;;;;;;;74.85;41.10;;;2.70;99.90;;;;;;4981280;28;20086;-76
2022/03/31 05:45:58;;;;;;;75.95;40.53;;;2.80;99.90;;;;;;4984925;28;20070;-76
2022/03/31 05:48:25;;;;;;;71.05;41.00;;;2.80;99.90;;;;;;4969403;28;20056;-74
2022/03/31 05:50:52;;;;;;;75.90;41.38;;;2.80;99.90;;;;;;4970861;28;20073;-75
2022/03/31 05:53:19;;;;;;;73.90;41.88;;;2.90;99.90;;;;;;4982284;28;20130;-76
2022/03/31 05:55:45;;;;;;;72.38;42.92;;;2.90;99.90;;;;;;4981773;28;20050;-75
2022/03/31 05:58:13;;;;;;;73.22;41.03;;;3.00;99.90;;;;;;4982954;28;20573;-75
2022/03/31 06:00:40;;;;;;;77.38;42.72;;;3.00;99.90;;;;;;4992887;28;20058;-74
2022/03/31 06:03:07;;;;;;;76.95;42.47;;;3.00;99.90;;;;;;4957738;28;20053;-76
2022/03/31 06:05:34;;;;;;;77.18;42.75;;;3.10;99.90;;;;;;4989490;28;20045;-75
2022/03/31 06:08:01;;;;;;;71.60;41.78;;;3.10;99.90;;;;;;4984227;28;20046;-76
2022/03/31 06:10:28;;;;;;;71.90;42.80;;;3.00;99.90;;;;;;5001964;28;20501;-76
2022/03/31 06:12:55;;;;;;;70.25;40.10;;;3.10;99.90;;;;;;5002736;28;20373;-74
2022/03/31 06:15:21;;;;;;;76.00;41.97;;;3.00;99.90;;;;;;5001430;28;20054;-76
2022/03/31 06:17:48;;;;;;;73.68;40.72;;;3.00;99.90;;;;;;5056961;23;20337;-76
2022/03/31 06:20:15;;;;;;;74.03;40.75;;;3.00;99.90;;;;;;4993088;28;20424;-77
2022/03/31 06:22:42;;;;;;;70.65;40.88;;;3.00;99.90;;;;;;5000898;28;20048;-76
2022/03/31 06:25:12;;;;;;;75.13;41.22;;;3.00;99.90;;;;;;5002048;28;20045;-77
2022/03/31 06:27:39;;;;;;;79.40;43.15;;;3.00;99.90;;;;;;5016805;28;20127;-77
2022/03/31 06:30:07;;;;;;;82.55;42.90;;;3.10;99.90;;;;;;5020520;28;20046;-76
2022/03/31 06:32:34;;;;;;;77.15;43.28;;;3.10;99.90;;;;;;5021721;28;20376;-77
2022/03/31 06:35:01;;;;;;;82.43;43.38;;;3.20;99.90;;;;;;5003424;28;20073;-77
2022/03/31 06:37:28;;;;;;;78.65;41.97;;;3.20;99.90;;;;;;5020658;28;20362;-77
2022/03/31 06:39:55;;;;;;;78.47;44.20;;;3.30;99.90;;;;;;5003099;28;20076;-76
2022/03/31 06:42:22;;;;;;;80.13;44.78;;;3.30;99.90;;;;;;5020140;28;20136;-77
2022/03/31 06:44:56;;;;;;;87.88;46.17;;;3.30;99.90;;;;;;5004479;28;20053;-76
2022/03/31 06:47:43;;;;;;;79.50;44.60;;;3.30;99.90;;;;;;5020962;28;20049;-77
2022/03/31 06:50:11;;;;;;;87.57;44.75;;;3.40;99.90;;;;;;5018601;28;20037;-77
2022/03/31 06:52:38;;;;;;;81.00;44.63;;;3.50;99.90;;;;;;5018033;28;20288;-77
2022/03/31 06:55:06;;;;;;;81.35;44.58;;;3.50;99.90;;;;;;5003949;28;20222;-76
2022/03/31 06:57:33;;;;;;;86.10;44.97;;;3.50;99.90;;;;;;5003249;28;20097;-76
2022/03/31 06:59:59;;;;;;;87.57;45.33;;;3.40;99.90;;;;;;5020569;28;20076;-77
2022/03/31 07:02:26;;;;;;;84.50;44.95;;;3.40;99.90;;;;;;5000027;28;20049;-77
2022/03/31 07:04:53;;;;;;;83.85;46.67;;;3.50;99.90;;;;;;5018293;28;20049;-77
2022/03/31 07:07:21;;;;;;;81.20;45.00;;;3.60;99.90;;;;;;5018799;28;20571;-77
2022/03/31 07:09:47;;;;;;;94.50;49.15;;;3.50;99.90;;;;;;5014614;28;20104;-76
2022/03/31 07:12:14;;;;;;;84.63;45.67;;;3.60;99.90;;;;;;5001574;28;20420;-77
2022/03/31 07:14:41;;;;;;;87.93;47.08;;;3.50;99.90;;;;;;4984337;28;20053;-77
2022/03/31 07:17:07;;;;;;;88.55;48.40;;;3.60;99.90;;;;;;4983221;28;20085;-77
2022/03/31 07:19:34;;;;;;;88.32;46.88;;;3.70;99.90;;;;;;5002996;28;20751;-77
2022/03/31 07:22:01;;;;;;;85.80;47.63;;;3.80;99.90;;;;;;5002755;28;20460;-77
2022/03/31 07:24:28;;;;;;;82.13;45.53;;;3.80;99.90;;;;;;5020745;28;20427;-77
2022/03/31 07:26:55;;;;;;;84.72;44.45;;;3.90;99.90;;;;;;5002574;28;20045;-77
2022/03/31 07:29:22;;;;;;;85.15;47.35;;;3.90;99.90;;;;;;5023169;28;20601;-77
2022/03/31 07:31:49;;;;;;;91.38;47.28;;;3.90;99.90;;;;;;5001754;28;20056;-77
2022/03/31 07:34:16;;;;;;;78.15;42.88;;;4.10;99.90;;;;;;5020630;28;20052;-77
2022/03/31 07:36:42;;;;;;;81.18;47.38;;;4.00;99.90;;;;;;5002542;28;20045;-77
2022/03/31 07:39:09;;;;;;;80.80;45.90;;;4.00;99.90;;;;;;5020663;28;20076;-77
2022/03/31 07:41:36;;;;;;;83.80;43.72;;;4.10;99.90;;;;;;5006328;28;20420;-77
2022/03/31 07:44:03;;;;;;;85.43;46.15;;;4.10;99.90;;;;;;4983925;28;20207;-77
2022/03/31 07:46:32;;;;;;;84.15;46.47;;;4.00;99.90;;;;;;5000950;28;20049;-77
2022/03/31 07:48:59;;;;;;;89.90;49.22;;;3.90;99.90;;;;;;5017819;28;20044;-77
2022/03/31 07:51:26;;;;;;;94.50;47.42;;;3.90;99.90;;;;;;5014938;28;20084;-80
2022/03/31 07:53:53;;;;;;;81.25;44.85;;;4.00;99.90;;;;;;5022383;28;20323;-82
2022/03/31 07:56:20;;;;;;;83.03;46.10;;;4.10;99.90;;;;;;5007881;28;20053;-80
2022/03/31 07:58:47;;;;;;;84.50;48.85;;;4.00;99.90;;;;;;5027172;28;20053;-80
2022/03/31 08:01:14;;;;;;;84.05;49.53;;;4.10;99.90;;;;;;5024144;28;20188;-80
2022/03/31 08:03:41;;;;;;;82.57;47.17;;;4.10;99.90;;;;;;5027592;28;20048;-79
2022/03/31 08:06:08;;;;;;;82.85;48.22;;;4.10;99.90;;;;;;5027180;28;20065;-80
2022/03/31 08:08:38;;;;;;;85.28;48.22;;;4.10;99.90;;;;;;5008758;28;20081;-80
2022/03/31 08:11:05;;;;;;;84.25;46.92;;;4.00;99.90;;;;;;5001042;28;20057;-79
2022/03/31 08:13:31;;;;;;;81.65;47.17;;;4.00;99.90;;;;;;5042565;28;20096;-80
2022/03/31 08:15:59;;;;;;;84.55;48.38;;;3.90;99.90;;;;;;5027906;28;20049;-80
2022/03/31 08:18:31;;;;;;;93.65;49.22;;;3.90;99.90;;;;;;5030040;28;20488;-80
2022/03/31 08:20:59;;;;;;;89.20;45.60;;;4.00;99.90;;;;;;5034660;28;20049;-79
2022/03/31 08:23:26;;;;;;;88.75;49.38;;;4.10;99.90;;;;;;5011186;28;20042;-79
2022/03/31 08:25:54;;;;;;;82.53;47.08;;;4.20;99.90;;;;;;5028162;28;20064;-79
2022/03/31 08:28:21;;;;;;;98.80;55.28;;;4.20;99.90;;;;;;5032031;28;20061;-79
2022/03/31 08:30:48;;;;;;;92.93;55.30;;;4.20;99.90;;;;;;5035485;28;20118;-79
2022/03/31 08:33:15;;;;;;;99.53;53.65;;;4.20;99.90;;;;;;5012501;28;20064;-79
2022/03/31 08:35:44;;;;;;;92.13;51.90;;;4.30;99.90;;;;;;5027504;28;20045;-79
2022/03/31 08:38:11;;;;;;;97.28;57.17;;;4.30;99.90;;;;;;5025697;28;20075;-79
2022/03/31 08:40:45;;;;;;;101.70;53.13;;;4.30;99.90;;;;;;5025054;28;20037;-78
2022/03/31 08:43:12;;;;;;;97.07;52.20;;;4.10;99.90;;;;;;5009542;28;20292;-78
2022/03/31 08:45:41;;;;;;;84.03;47.92;;;4.10;99.90;;;;;;5024215;28;20049;-78
2022/03/31 08:48:08;;;;;;;110.75;58.05;;;4.10;99.90;;;;;;5026630;28;20049;-78
2022/03/31 08:50:37;;;;;;;79.15;46.20;;;4.00;99.90;;;;;;5023111;28;20037;-79
2022/03/31 08:53:04;;;;;;;79.88;49.80;;;4.10;99.90;;;;;;5004504;28;20107;-79
2022/03/31 08:55:31;;;;;;;72.13;43.55;;;4.10;99.90;;;;;;5011425;28;20141;-75
2022/03/31 08:57:58;;;;;;;78.93;44.35;;;4.20;99.90;;;;;;5009655;28;20520;-76
2022/03/31 09:00:25;;;;;;;68.30;42.55;;;4.20;99.90;;;;;;5020682;28;20507;-76
2022/03/31 09:03:01;;;;;;;64.55;38.55;;;4.10;99.90;;;;;;5005785;28;20131;-75
2022/03/31 09:05:38;;;;;;;63.97;39.97;;;4.10;99.90;;;;;;5021155;28;20345;-75
2022/03/31 09:08:05;;;;;;;54.78;34.90;;;4.10;99.90;;;;;;5022022;28;20581;-75
2022/03/31 09:10:42;;;;;;;68.85;41.05;;;4.10;99.90;;;;;;5003545;28;20203;-75
2022/03/31 09:13:37;;;;;;;59.83;39.88;;;4.20;99.90;;;;;;5021282;28;20057;-75
2022/03/31 09:16:11;;;;;;;65.03;41.70;;;4.30;99.90;;;;;;4986318;28;20548;-76
2022/03/31 09:18:39;;;;;;;59.55;36.42;;;4.30;99.90;;;;;;5021547;28;20054;-75
2022/03/31 09:21:09;;;;;;;63.33;40.15;;;4.10;99.90;;;;;;5019569;28;20269;-75
2022/03/31 09:23:43;;;;;;;61.97;39.67;;;4.00;99.90;;;;;;5009079;28;20099;-75
2022/03/31 09:26:13;;;;;;;62.13;40.00;;;4.10;99.90;;;;;;5002020;28;20596;-74
2022/03/31 09:28:41;;;;;;;62.60;38.63;;;4.20;99.90;;;;;;5021468;28;20338;-75
2022/03/31 09:31:12;;;;;;;53.25;34.95;;;4.30;99.90;;;;;;5003388;28;20041;-75
2022/03/31 09:33:44;;;;;;;60.08;39.10;;;4.20;99.90;;;;;;5007265;28;20050;-76
2022/03/31 09:36:22;;;;;;;55.72;37.60;;;4.20;99.90;;;;;;5001414;28;20436;-76
2022/03/31 09:39:13;;;;;;;61.50;40.65;;;4.30;99.90;;;;;;5001596;28;20050;-76
2022/03/31 09:41:41;;;;;;;53.40;36.63;;;4.40;99.90;;;;;;5001263;28;20053;-76
2022/03/31 09:44:16;;;;;;;54.97;38.38;;;4.50;99.90;;;;;;5000684;28;20416;-76
2022/03/31 09:46:44;;;;;;;52.85;36.75;;;4.60;99.90;;;;;;5001671;28;20136;-75
2022/03/31 09:49:18;;;;;;;58.45;39.08;;;4.50;99.90;;;;;;5020976;28;20038;-75
2022/03/31 09:51:58;;;;;;;53.08;37.05;;;4.50;99.90;;;;;;5018797;28;20496;-76
2022/03/31 09:54:28;;;;;;;53.53;36.40;;;4.40;99.90;;;;;;5004358;28;20049;-75
2022/03/31 09:56:56;;;;;;;48.92;35.88;;;4.50;99.90;;;;;;5003148;28;20076;-75
2022/03/31 09:59:32;;;;;;;51.90;37.03;;;4.40;99.90;;;;;;5003196;28;20455;-75
2022/03/31 10:02:00;;;;;;;51.53;35.47;;;4.50;99.90;;;;;;5001502;28;20107;-75
2022/03/31 10:04:27;;;;;;;51.38;38.72;;;4.60;99.90;;;;;;5007535;28;20199;-75
2022/03/31 10:06:55;;;;;;;56.22;39.72;;;4.80;99.90;;;;;;4999806;28;20351;-76
2022/03/31 10:09:25;;;;;;;48.45;36.85;;;5.00;99.90;;;;;;4982600;28;20049;-75
2022/03/31 10:12:11;;;;;;;47.20;37.08;;;5.30;99.90;;;;;;5004434;28;20045;-75
2022/03/31 10:15:01;;;;;;;44.72;38.33;;;5.00;99.90;;;;;;5018472;28;20081;-75
2022/03/31 10:17:30;;;;;;;49.90;38.75;;;5.10;99.90;;;;;;5001516;28;20135;-75
2022/03/31 10:20:14;;;;;;;49.45;39.15;;;5.20;99.90;;;;;;5020463;28;20080;-75
2022/03/31 10:25:44;;;;;;;47.60;35.83;;;5.30;99.90;;;;;;4999561;28;20120;-75
2022/03/31 10:28:14;;;;;;;78.90;60.15;;;5.40;99.90;;;;;;5020632;28;20107;-75
2022/03/31 10:30:57;;;;;;;38.42;32.65;;;5.30;99.90;;;;;;5019534;28;20518;-75
2022/03/31 10:33:51;;;;;;;45.53;35.63;;;5.40;99.90;;;;;;5020414;28;20048;-75
2022/03/31 10:36:21;;;;;;;41.47;37.17;;;5.40;99.90;;;;;;4999810;28;20048;-75
2022/03/31 10:38:51;;;;;;;46.08;34.00;;;5.30;99.90;;;;;;4988472;28;20435;-76
2022/03/31 10:41:18;;;;;;;41.65;36.50;;;5.30;99.90;;;;;;5001854;28;20049;-75
2022/03/31 10:43:47;;;;;;;40.60;36.17;;;5.20;99.90;;;;;;5009982;28;20185;-76
2022/03/31 10:46:19;;;;;;;51.80;43.28;;;5.10;99.90;;;;;;4998255;28;20085;-75
2022/03/31 10:48:54;;;;;;;52.45;41.67;;;5.30;99.90;;;;;;5002514;28;20418;-76
2022/03/31 10:51:32;;;;;;;45.25;38.80;;;5.30;99.90;;;;;;5019263;28;20552;-75
2022/03/31 10:54:00;;;;;;;51.88;40.30;;;5.20;99.90;;;;;;5019634;28;20126;-75
2022/03/31 10:56:30;;;;;;;70.10;57.85;;;5.20;99.90;;;;;;5000715;28;20099;-76
2022/03/31 10:59:02;;;;;;;43.92;39.50;;;5.30;99.90;;;;;;5011925;28;20072;-75
2022/03/31 11:01:34;;;;;;;40.63;36.25;;;5.30;99.90;;;;;;5018995;28;20107;-75
2022/03/31 11:04:06;;;;;;;42.55;38.05;;;5.40;99.90;;;;;;5020140;28;20053;-75
2022/03/31 11:06:44;;;;;;;44.58;40.10;;;5.50;99.90;;;;;;5017699;28;20050;-75
2022/03/31 11:09:23;;;;;;;41.67;35.60;;;5.60;99.90;;;;;;5019808;28;20103;-76
2022/03/31 11:11:51;;;;;;;41.45;37.08;;;5.60;99.90;;;;;;5014553;28;20404;-75
2022/03/31 11:14:18;;;;;;;44.92;36.10;;;5.60;99.90;;;;;;5020162;28;20042;-75
2022/03/31 11:16:49;;;;;;;38.47;34.38;;;5.50;99.90;;;;;;5018551;28;20049;-75
2022/03/31 11:19:19;;;;;;;46.80;39.15;;;5.40;99.90;;;;;;5001555;28;20045;-75
2022/03/31 11:21:46;;;;;;;69.65;57.83;;;5.40;99.90;;;;;;5008234;28;20080;-75
2022/03/31 11:24:13;;;;;;;45.28;39.08;;;5.50;99.90;;;;;;5006242;28;20522;-75
2022/03/31 11:26:44;;;;;;;77.63;55.45;;;5.50;99.90;;;;;;5001556;28;20038;-76
2022/03/31 11:29:18;;;;;;;80.40;59.40;;;5.60;99.90;;;;;;5018404;28;20428;-75
2022/03/31 11:31:51;;;;;;;40.67;36.20;;;5.40;99.90;;;;;;4997003;28;20099;-75
2022/03/31 11:34:26;;;;;;;47.20;37.80;;;5.50;99.90;;;;;;5011755;28;20468;-75
2022/03/31 11:36:54;;;;;;;46.17;41.22;;;5.50;99.90;;;;;;5017143;28;20037;-75
2022/03/31 11:39:28;;;;;;;42.03;34.03;;;5.40;99.90;;;;;;5018976;28;20125;-75
2022/03/31 11:41:56;;;;;;;41.53;37.13;;;5.60;99.90;;;;;;5018368;28;20108;-76
2022/03/31 11:44:24;;;;;;;37.90;33.70;;;5.80;99.90;;;;;;4991780;28;20167;-75
2022/03/31 11:46:51;;;;;;;39.33;35.22;;;5.90;99.90;;;;;;5000362;28;20112;-75
2022/03/31 11:49:19;;;;;;;40.75;35.28;;;6.00;99.90;;;;;;5004207;28;20053;-76
2022/03/31 11:51:54;;;;;;;42.28;37.85;;;6.10;99.90;;;;;;5017017;28;20362;-75
2022/03/31 11:54:22;;;;;;;34.50;31.50;;;6.10;99.90;;;;;;5019755;28;20077;-76
2022/03/31 11:57:03;;;;;;;37.92;33.92;;;6.30;99.90;;;;;;5019688;28;20046;-75
2022/03/31 11:59:30;;;;;;;31.50;28.60;;;6.50;99.90;;;;;;5005794;28;20076;-75
2022/03/31 12:01:57;;;;;;;57.33;49.10;;;6.50;99.90;;;;;;5001300;28;20053;-76
2022/03/31 12:04:27;;;;;;;54.85;48.75;;;6.50;99.90;;;;;;5002816;28;20049;-75
2022/03/31 12:06:58;;;;;;;41.17;37.17;;;6.60;99.90;;;;;;5018651;28;20038;-76
2022/03/31 12:09:26;;;;;;;59.35;51.25;;;6.50;99.90;;;;;;5019742;28;20073;-76
2022/03/31 12:11:53;;;;;;;45.38;40.72;;;6.50;99.90;;;;;;5019455;28;20068;-76
2022/03/31 12:14:20;;;;;;;33.90;30.80;;;6.40;99.90;;;;;;5022088;28;20123;-75
2022/03/31 12:16:50;;;;;;;41.22;36.78;;;6.40;99.90;;;;;;5022396;23;20088;-76
2022/03/31 12:19:18;;;;;;;41.03;36.47;;;6.30;99.90;;;;;;4989145;28;20050;-73
2022/03/31 12:21:52;;;;;;;35.15;31.73;;;6.30;99.90;;;;;;4980334;28;20323;-73
2022/03/31 12:24:20;;;;;;;34.72;31.55;;;6.20;99.90;;;;;;4981320;28;20136;-72
2022/03/31 12:27:04;;;;;;;39.72;35.58;;;6.00;99.90;;;;;;4983060;28;20141;-73
2022/03/31 12:29:33;;;;;;;35.50;32.22;;;6.10;99.90;;;;;;4963214;28;20058;-73
2022/03/31 12:32:03;;;;;;;40.17;35.80;;;6.00;99.90;;;;;;4962421;28;20116;-73
2022/03/31 12:34:31;;;;;;;36.25;32.53;;;5.80;99.90;;;;;;4963030;28;20560;-74
2022/03/31 12:36:58;;;;;;;38.90;34.80;;;5.90;99.90;;;;;;4959622;28;20316;-73
2022/03/31 12:39:25;;;;;;;39.97;35.55;;;5.70;99.90;;;;;;4977221;28;20485;-74
2022/03/31 12:41:54;;;;;;;45.90;38.28;;;5.80;99.90;;;;;;4978257;28;20100;-74
2022/03/31 12:44:24;;;;;;;40.65;36.45;;;5.70;99.90;;;;;;4979666;28;20564;-74
2022/03/31 12:46:51;;;;;;;39.38;35.40;;;5.80;99.90;;;;;;4963320;28;20507;-74
2022/03/31 12:49:20;;;;;;;46.60;38.30;;;5.60;99.90;;;;;;4992033;28;20054;-74
2022/03/31 12:51:53;;;;;;;47.33;39.08;;;5.70;99.90;;;;;;4982137;28;20546;-74
2022/03/31 12:54:22;;;;;;;40.67;36.33;;;5.70;99.90;;;;;;4970028;28;20104;-74
2022/03/31 12:56:50;;;;;;;41.83;37.33;;;5.50;99.90;;;;;;4994517;28;20047;-74
2022/03/31 12:59:18;;;;;;;41.78;36.72;;;5.40;99.90;;;;;;4968366;28;20051;-74
2022/03/31 13:02:01;;;;;;;45.90;36.92;;;5.40;99.90;;;;;;4981769;28;20050;-74
2022/03/31 13:04:29;;;;;;;69.65;47.72;;;5.50;99.90;;;;;;4962234;28;20047;-74